createdAt,value
2022-10-18T00:00:06.427Z,17.02
2022-10-18T00:02:33.119Z,18.63
2022-10-18T00:04:59.748Z,15.93
2022-10-18T00:07:26.384Z,14.27
2022-10-18T00:09:53.013Z,13.65
2022-10-18T00:12:19.640Z,15.50
2022-10-18T00:14:50.029Z,14.98
2022-10-18T00:17:16.956Z,18.23
2022-10-18T00:19:43.864Z,14.27
2022-10-18T00:22:10.461Z,13.20
2022-10-18T00:24:37.061Z,13.05
2022-10-18T00:27:03.711Z,13.10
2022-10-18T00:29:30.292Z,12.57
2022-10-18T00:31:56.907Z,12.68
2022-10-18T00:34:23.543Z,12.07
2022-10-18T00:36:50.168Z,12.82
2022-10-18T00:39:20.234Z,12.38
2022-10-18T00:41:47.783Z,12.63
2022-10-18T00:44:14.303Z,14.18
2022-10-18T00:46:44.316Z,14.85
2022-10-18T00:51:48.715Z,19.73
2022-10-18T00:54:17.229Z,18.65
2022-10-18T00:56:45.024Z,20.30
2022-10-18T00:59:15.269Z,19.35
2022-10-18T01:01:42.044Z,17.52
2022-10-18T01:04:08.868Z,19.73
2022-10-18T01:06:47.198Z,17.73
2022-10-18T01:09:32.348Z,16.00
2022-10-18T01:12:18.214Z,14.75
2022-10-18T01:14:50.761Z,18.08
2022-10-18T01:17:24.485Z,16.65
2022-10-18T01:20:13.673Z,16.08
2022-10-18T01:22:48.112Z,20.63
2022-10-18T01:25:30.554Z,18.05
2022-10-18T01:28:34.404Z,18.08
2022-10-18T01:31:10.729Z,18.27
2022-10-18T01:33:51.144Z,18.05
2022-10-18T01:36:36.169Z,18.20
2022-10-18T01:39:07.625Z,17.27
2022-10-18T01:41:38.670Z,18.52
2022-10-18T01:44:08.492Z,18.27
2022-10-18T01:46:37.376Z,17.13
2022-10-18T01:49:04.581Z,18.40
2022-10-18T01:51:33.108Z,17.88
2022-10-18T01:54:00.500Z,18.05
2022-10-18T01:56:42.697Z,17.40
2022-10-18T01:59:15.381Z,17.60
2022-10-18T02:02:00.540Z,17.67
2022-10-18T02:04:34.909Z,16.90
2022-10-18T02:07:26.834Z,16.17
2022-10-18T02:10:35.121Z,16.63
2022-10-18T02:13:02.795Z,16.95
2022-10-18T02:15:39.847Z,16.25
2022-10-18T02:18:11.291Z,17.52
2022-10-18T02:20:39.123Z,17.20
2022-10-18T02:23:08.381Z,16.58
2022-10-18T02:25:36.195Z,17.02
2022-10-18T02:28:04.357Z,18.38
2022-10-18T02:30:41.034Z,19.67
2022-10-18T02:33:20.302Z,20.13
2022-10-18T02:36:03.957Z,18.65
2022-10-18T02:38:32.384Z,18.77
2022-10-18T02:40:59.736Z,19.58
2022-10-18T02:43:26.933Z,19.98
2022-10-18T02:45:53.697Z,19.73
2022-10-18T02:48:20.367Z,20.15
2022-10-18T02:50:47.028Z,18.92
2022-10-18T02:53:13.610Z,20.70
2022-10-18T02:55:40.188Z,21.13
2022-10-18T02:58:06.857Z,20.05
2022-10-18T03:00:33.432Z,19.27
2022-10-18T03:03:00.052Z,21.77
2022-10-18T03:05:26.653Z,22.10
2022-10-18T03:07:53.284Z,20.30
2022-10-18T03:10:19.956Z,20.90
2022-10-18T03:12:46.599Z,24.27
2022-10-18T03:15:13.215Z,23.08
2022-10-18T03:17:39.792Z,22.25
2022-10-18T03:20:07.093Z,24.05
2022-10-18T03:22:33.710Z,23.65
2022-10-18T03:25:00.326Z,23.77
2022-10-18T03:27:27.008Z,21.98
2022-10-18T03:29:53.612Z,22.13
2022-10-18T03:32:20.201Z,23.45
2022-10-18T03:34:46.792Z,22.88
2022-10-18T03:37:13.428Z,23.10
2022-10-18T03:39:40.037Z,23.17
2022-10-18T03:42:06.627Z,21.10
2022-10-18T03:44:33.203Z,22.00
2022-10-18T03:46:59.852Z,22.75
2022-10-18T03:49:26.505Z,23.92
2022-10-18T03:51:53.152Z,21.48
2022-10-18T03:54:19.841Z,22.48
2022-10-18T03:56:46.508Z,26.10
2022-10-18T03:59:13.684Z,24.40
2022-10-18T04:01:40.355Z,24.02
2022-10-18T04:04:07.036Z,23.65
2022-10-18T04:06:33.657Z,23.02
2022-10-18T04:09:00.273Z,18.20
2022-10-18T04:11:26.906Z,19.20
2022-10-18T04:13:53.489Z,16.35
2022-10-18T04:16:20.134Z,16.00
2022-10-18T04:18:46.777Z,15.57
2022-10-18T04:21:13.401Z,16.58
2022-10-18T04:23:40.027Z,16.90
2022-10-18T04:26:07.601Z,16.65
2022-10-18T04:28:35.428Z,16.83
2022-10-18T04:31:02.186Z,16.05
2022-10-18T04:33:28.837Z,16.58
2022-10-18T04:35:55.420Z,17.98
2022-10-18T04:38:22.068Z,19.02
2022-10-18T04:40:48.747Z,18.17
2022-10-18T04:43:15.821Z,18.70
2022-10-18T04:45:45.460Z,18.88
2022-10-18T04:48:12.487Z,20.98
2022-10-18T04:50:39.122Z,20.38
2022-10-18T04:53:05.703Z,23.15
2022-10-18T04:55:32.356Z,23.02
2022-10-18T04:57:58.937Z,22.05
2022-10-18T05:00:25.761Z,21.00
2022-10-18T05:02:58.747Z,20.95
2022-10-18T05:05:33.139Z,21.27
2022-10-18T05:08:12.915Z,20.70
2022-10-18T05:10:39.657Z,20.30
2022-10-18T05:13:06.348Z,22.13
2022-10-18T05:15:32.965Z,22.25
2022-10-18T05:17:59.651Z,22.63
2022-10-18T05:20:26.562Z,23.20
2022-10-18T05:22:53.157Z,28.05
2022-10-18T05:25:19.791Z,30.92
2022-10-18T05:27:46.472Z,29.38
2022-10-18T05:30:13.213Z,26.42
2022-10-18T05:32:39.788Z,24.80
2022-10-18T05:35:06.988Z,23.98
2022-10-18T05:37:33.709Z,21.85
2022-10-18T05:40:00.326Z,21.02
2022-10-18T05:42:26.923Z,20.02
2022-10-18T05:44:53.549Z,19.17
2022-10-18T05:47:20.146Z,19.08
2022-10-18T05:49:47.797Z,18.63
2022-10-18T05:52:14.462Z,19.13
2022-10-18T05:54:41.060Z,26.42
2022-10-18T05:57:07.652Z,31.02
2022-10-18T05:59:34.316Z,30.55
2022-10-18T06:02:00.901Z,26.27
2022-10-18T06:04:27.473Z,24.13
2022-10-18T06:06:55.991Z,21.23
2022-10-18T06:09:22.740Z,19.80
2022-10-18T06:11:49.332Z,18.08
2022-10-18T06:14:15.936Z,17.95
2022-10-18T06:16:42.536Z,17.98
2022-10-18T06:19:09.124Z,17.88
2022-10-18T06:21:35.766Z,17.42
2022-10-18T06:24:02.384Z,19.25
2022-10-18T06:26:29.039Z,18.27
2022-10-18T06:28:55.899Z,16.75
2022-10-18T06:31:22.677Z,15.25
2022-10-18T06:33:49.661Z,15.30
2022-10-18T06:36:19.157Z,15.40
2022-10-18T06:38:45.888Z,15.50
2022-10-18T06:41:12.627Z,14.48
2022-10-18T06:43:39.814Z,12.80
2022-10-18T06:46:08.185Z,13.35
2022-10-18T06:48:39.162Z,13.80
2022-10-18T06:51:07.269Z,13.15
2022-10-18T06:53:43.796Z,12.80
2022-10-18T06:56:20.138Z,13.70
2022-10-18T06:58:46.817Z,12.55
2022-10-18T07:01:18.426Z,13.38
2022-10-18T07:03:47.196Z,12.73
2022-10-18T07:06:16.493Z,12.05
2022-10-18T07:08:43.744Z,13.15
2022-10-18T07:11:16.225Z,11.73
2022-10-18T07:13:43.107Z,13.02
2022-10-18T07:16:18.307Z,13.18
2022-10-18T07:18:50.474Z,12.13
2022-10-18T07:21:19.938Z,12.32
2022-10-18T07:23:47.520Z,13.13
2022-10-18T07:26:17.243Z,12.27
2022-10-18T07:28:45.860Z,13.15
2022-10-18T07:31:13.483Z,12.43
2022-10-18T07:33:40.391Z,18.42
2022-10-18T07:36:09.154Z,14.77
2022-10-18T07:38:36.524Z,11.82
2022-10-18T07:41:06.691Z,10.48
2022-10-18T07:43:34.330Z,10.43
2022-10-18T07:46:04.435Z,11.35
2022-10-18T07:48:31.297Z,9.80
2022-10-18T07:50:59.738Z,12.48
2022-10-18T07:53:26.836Z,13.20
2022-10-18T07:55:57.379Z,14.02
2022-10-18T07:58:23.971Z,12.80
2022-10-18T08:00:50.540Z,9.80
2022-10-18T08:03:17.268Z,10.88
2022-10-18T08:05:43.899Z,14.07
2022-10-18T08:08:10.525Z,10.52
2022-10-18T08:10:37.219Z,9.50
2022-10-18T08:13:03.813Z,12.68
2022-10-18T08:15:30.388Z,10.07
2022-10-18T08:17:56.994Z,11.18
2022-10-18T08:20:30.849Z,12.80
2022-10-18T08:23:00.302Z,10.00
2022-10-18T08:25:28.324Z,9.48
2022-10-18T08:27:55.061Z,9.32
2022-10-18T08:30:23.370Z,23.77
2022-10-18T08:32:49.988Z,11.98
2022-10-18T08:35:16.664Z,16.10
2022-10-18T08:37:45.322Z,14.85
2022-10-18T08:40:15.727Z,18.13
2022-10-18T08:43:22.629Z,10.07
2022-10-18T08:45:51.063Z,22.55
2022-10-18T08:48:31.068Z,18.65
2022-10-18T08:50:58.494Z,9.25
2022-10-18T08:53:36.254Z,8.80
2022-10-18T08:56:21.194Z,8.25
2022-10-18T08:58:47.907Z,8.40
2022-10-18T09:04:52.472Z,10.80
2022-10-18T09:07:55.846Z,7.28
2022-10-18T09:10:52.172Z,7.00
2022-10-18T09:13:24.855Z,7.10
2022-10-18T09:16:15.300Z,7.15
2022-10-18T09:18:47.813Z,6.30
2022-10-18T09:21:17.320Z,6.25
2022-10-18T09:23:48.397Z,6.95
2022-10-18T09:26:19.920Z,6.88
2022-10-18T09:29:14.832Z,6.95
2022-10-18T09:31:53.809Z,6.25
2022-10-18T09:34:53.943Z,5.78
2022-10-18T09:37:21.639Z,5.95
2022-10-18T09:39:50.674Z,6.30
2022-10-18T09:42:38.172Z,6.03
2022-10-18T09:45:32.030Z,5.53
2022-10-18T09:48:09.673Z,5.55
2022-10-18T09:50:58.585Z,6.00
2022-10-18T09:53:46.279Z,6.15
2022-10-18T09:56:26.322Z,6.03
2022-10-18T09:58:52.989Z,5.57
2022-10-18T10:01:27.683Z,6.15
2022-10-18T10:03:54.634Z,5.82
2022-10-18T10:06:28.702Z,5.30
2022-10-18T10:09:08.030Z,6.05
2022-10-18T10:11:36.527Z,5.93
2022-10-18T10:14:27.533Z,5.80
2022-10-18T10:16:57.025Z,5.60
2022-10-18T10:19:28.144Z,5.60
2022-10-18T10:22:10.591Z,5.63
2022-10-18T10:24:39.880Z,6.57
2022-10-18T10:27:15.472Z,5.93
2022-10-18T10:29:52.297Z,5.72
2022-10-18T10:32:21.396Z,5.55
2022-10-18T10:34:48.321Z,5.80
2022-10-18T10:37:28.753Z,5.72
2022-10-18T10:40:23.973Z,6.00
2022-10-18T10:43:33.145Z,5.50
2022-10-18T10:46:15.103Z,6.00
2022-10-18T10:49:27.854Z,5.57
2022-10-18T10:52:02.456Z,5.20
2022-10-18T10:54:39.032Z,5.20
2022-10-18T10:57:23.329Z,5.13
2022-10-18T10:59:52.651Z,4.65
2022-10-18T11:02:37.801Z,5.28
2022-10-18T11:05:29.464Z,4.88
2022-10-18T11:07:59.565Z,5.68
2022-10-18T11:10:30.813Z,5.32
2022-10-18T11:13:31.483Z,4.68
2022-10-18T11:16:10.235Z,4.82
2022-10-18T11:18:38.247Z,5.70
2022-10-18T11:21:12.824Z,5.53
2022-10-18T11:23:42.172Z,5.10
2022-10-18T11:26:11.660Z,5.57
2022-10-18T11:28:47.499Z,4.60
2022-10-18T11:31:41.638Z,4.63
2022-10-18T11:34:39.041Z,5.50
2022-10-18T11:37:38.394Z,4.65
2022-10-18T11:40:28.343Z,4.50
2022-10-18T11:45:48.778Z,5.05
2022-10-18T11:48:52.044Z,4.68
2022-10-18T11:51:56.388Z,4.20
2022-10-18T11:54:52.128Z,5.13
2022-10-18T11:57:42.739Z,4.78
2022-10-18T12:00:34.607Z,5.43
2022-10-18T12:03:37.695Z,4.60
2022-10-18T12:06:17.248Z,4.80
2022-10-18T12:08:59.597Z,4.80
2022-10-18T12:11:50.232Z,4.85
2022-10-18T12:14:27.364Z,4.70
2022-10-18T12:17:27.911Z,4.55
2022-10-18T12:19:47.022Z,4.82
2022-10-18T12:22:23.119Z,4.70
2022-10-18T12:24:49.727Z,3.97
2022-10-18T12:27:16.956Z,4.55
2022-10-18T12:29:58.113Z,4.45
2022-10-18T12:32:34.069Z,4.43
2022-10-18T12:35:15.344Z,4.75
2022-10-18T12:37:54.041Z,4.30
2022-10-18T12:40:26.151Z,4.80
2022-10-18T12:42:53.498Z,4.38
2022-10-18T12:45:25.189Z,4.45
2022-10-18T12:47:52.579Z,3.97
2022-10-18T12:50:40.533Z,4.10
2022-10-18T12:53:10.269Z,4.40
2022-10-18T12:58:16.043Z,4.25
2022-10-18T13:00:42.593Z,5.18
2022-10-18T13:03:09.146Z,4.95
2022-10-18T13:06:06.408Z,4.43
2022-10-18T13:08:42.249Z,4.03
2022-10-18T13:11:11.651Z,4.50
2022-10-18T13:14:02.232Z,4.30
2022-10-18T13:16:50.958Z,4.57
2022-10-18T13:20:20.560Z,4.00
2022-10-18T13:22:59.428Z,4.32
2022-10-18T13:25:34.598Z,4.18
2022-10-18T13:28:30.352Z,3.92
2022-10-18T13:31:19.592Z,3.65
2022-10-18T13:33:46.363Z,3.72
2022-10-18T13:36:22.879Z,4.30
2022-10-18T13:38:50.467Z,4.55
2022-10-18T13:41:18.596Z,4.88
2022-10-18T13:44:00.464Z,4.93
2022-10-18T13:46:33.192Z,4.70
2022-10-18T13:49:17.513Z,4.28
2022-10-18T13:52:14.534Z,4.43
2022-10-18T13:55:06.142Z,4.28
2022-10-18T13:57:57.076Z,3.70
2022-10-18T14:01:31.624Z,3.50
2022-10-18T14:04:24.176Z,3.78
2022-10-18T14:06:52.283Z,3.70
2022-10-18T14:09:40.450Z,3.95
2022-10-18T14:12:29.209Z,4.38
2022-10-18T14:15:17.198Z,4.25
2022-10-18T14:17:53.593Z,4.20
2022-10-18T14:20:49.133Z,4.25
2022-10-18T14:23:24.803Z,4.32
2022-10-18T14:25:51.654Z,3.95
2022-10-18T14:28:27.353Z,4.57
2022-10-18T14:31:12.777Z,5.30
2022-10-18T14:33:46.428Z,5.38
2022-10-18T14:36:26.566Z,5.55
2022-10-18T14:38:57.104Z,5.50
2022-10-18T14:41:29.041Z,5.07
2022-10-18T14:44:14.294Z,5.65
2022-10-18T14:46:52.877Z,4.60
2022-10-18T14:49:21.014Z,5.15
2022-10-18T14:51:51.629Z,8.48
2022-10-18T14:54:33.860Z,7.82
2022-10-18T14:57:02.261Z,7.50
2022-10-18T14:59:32.596Z,6.63
2022-10-18T15:02:03.203Z,6.50
2022-10-18T15:04:33.265Z,7.22
2022-10-18T15:07:07.833Z,11.65
2022-10-18T15:09:36.965Z,23.55
2022-10-18T15:12:05.936Z,12.75
2022-10-18T15:14:34.019Z,11.98
2022-10-18T15:17:07.515Z,10.05
2022-10-18T15:19:42.939Z,9.43
2022-10-18T15:25:05.683Z,9.90
2022-10-18T15:27:35.768Z,9.40
2022-10-18T15:30:34.533Z,8.13
2022-10-18T15:33:03.099Z,7.32
2022-10-18T15:35:35.712Z,7.43
2022-10-18T15:38:24.474Z,7.40
2022-10-18T15:40:51.136Z,8.50
2022-10-18T15:43:24.155Z,7.80
2022-10-18T15:46:05.345Z,9.00
2022-10-18T15:48:41.271Z,8.85
2022-10-18T15:51:18.906Z,9.57
2022-10-18T15:53:52.951Z,7.32
2022-10-18T15:56:35.935Z,9.13
2022-10-18T15:59:06.116Z,29.92
2022-10-18T16:01:42.380Z,46.92
2022-10-18T16:04:20.021Z,50.42
2022-10-18T16:06:46.703Z,32.35
2022-10-18T16:09:16.652Z,51.05
2022-10-18T16:11:43.409Z,31.10
2022-10-18T16:14:10.184Z,30.35
2022-10-18T16:16:36.975Z,45.75
2022-10-18T16:19:04.048Z,34.97
2022-10-18T16:21:31.876Z,37.85
2022-10-18T16:23:58.556Z,37.53
2022-10-18T16:26:26.101Z,49.78
2022-10-18T16:28:53.886Z,71.03
2022-10-18T16:31:23.012Z,79.00
2022-10-18T16:33:50.862Z,81.00
2022-10-18T16:36:31.451Z,88.55
2022-10-18T16:39:01.300Z,91.95
2022-10-18T16:43:54.586Z,79.03
2022-10-18T16:46:23.947Z,84.47
2022-10-18T16:48:51.370Z,82.60
2022-10-18T16:51:18.216Z,66.20
2022-10-18T16:53:45.199Z,64.32
2022-10-18T16:56:17.841Z,41.70
2022-10-18T16:58:45.481Z,43.53
2022-10-18T17:01:17.890Z,32.45
2022-10-18T17:03:45.072Z,42.90
2022-10-18T17:06:17.669Z,44.05
2022-10-18T17:08:45.121Z,53.15
2022-10-18T17:11:13.582Z,55.47
2022-10-18T17:13:40.944Z,55.33
2022-10-18T17:16:18.360Z,52.20
2022-10-18T17:18:45.012Z,52.90
2022-10-18T17:21:11.612Z,46.60
2022-10-18T17:23:38.981Z,29.27
2022-10-18T17:26:26.165Z,34.65
2022-10-18T17:28:59.049Z,37.75
2022-10-18T17:31:25.763Z,32.50
2022-10-18T17:33:54.659Z,27.05
2022-10-18T17:36:22.061Z,27.38
2022-10-18T17:38:53.027Z,30.40
2022-10-18T17:41:20.348Z,34.60
2022-10-18T17:43:48.293Z,28.30
2022-10-18T17:46:16.236Z,22.27
2022-10-18T17:48:42.899Z,21.35
2022-10-18T17:51:11.880Z,21.23
2022-10-18T17:53:39.076Z,20.90
2022-10-18T17:56:07.359Z,21.70
2022-10-18T17:58:34.643Z,21.63
2022-10-18T18:01:15.958Z,24.05
2022-10-18T18:03:43.458Z,21.95
2022-10-18T18:06:20.608Z,22.67
2022-10-18T18:08:48.593Z,22.90
2022-10-18T18:11:16.172Z,21.90
2022-10-18T18:13:43.054Z,22.00
2022-10-18T18:16:16.056Z,21.30
2022-10-18T18:18:43.903Z,18.00
2022-10-18T18:21:11.038Z,19.23
2022-10-18T18:23:37.925Z,17.75
2022-10-18T18:26:04.931Z,17.27
2022-10-18T18:28:31.546Z,16.85
2022-10-18T18:30:58.171Z,18.52
2022-10-18T18:33:24.818Z,16.55
2022-10-18T18:35:58.618Z,21.73
2022-10-18T18:38:26.121Z,20.85
2022-10-18T18:41:04.197Z,19.90
2022-10-18T18:43:30.935Z,19.63
2022-10-18T18:45:57.569Z,20.38
2022-10-18T18:48:24.553Z,26.02
2022-10-18T18:50:52.323Z,24.40
2022-10-18T18:53:19.184Z,24.05
2022-10-18T18:55:46.155Z,21.95
2022-10-18T18:58:12.894Z,19.92
2022-10-18T19:00:43.607Z,18.40
2022-10-18T19:03:11.532Z,25.17
2022-10-18T19:05:38.228Z,20.38
2022-10-18T19:08:05.929Z,20.00
2022-10-18T19:10:32.890Z,26.83
2022-10-18T19:12:59.581Z,22.17
2022-10-18T19:15:26.265Z,22.08
2022-10-18T19:17:52.850Z,20.98
2022-10-18T19:20:19.635Z,19.48
2022-10-18T19:22:46.280Z,17.95
2022-10-18T19:25:13.212Z,21.20
2022-10-18T19:27:40.059Z,19.90
2022-10-18T19:30:09.612Z,18.60
2022-10-18T19:32:36.329Z,19.05
2022-10-18T19:35:03.518Z,20.42
2022-10-18T19:37:30.377Z,19.40
2022-10-18T19:39:58.545Z,20.02
2022-10-18T19:42:30.341Z,20.38
2022-10-18T19:44:57.966Z,27.75
2022-10-18T19:47:24.555Z,28.40
2022-10-18T19:49:52.782Z,28.35
2022-10-18T19:52:19.390Z,27.17
2022-10-18T19:54:48.723Z,24.40
2022-10-18T19:57:15.449Z,25.50
2022-10-18T19:59:42.046Z,23.70
2022-10-18T20:02:14.106Z,22.17
2022-10-18T20:04:40.964Z,21.38
2022-10-18T20:07:07.554Z,27.67
2022-10-18T20:09:34.412Z,25.60
2022-10-18T20:12:01.147Z,21.75
2022-10-18T20:14:27.892Z,26.83
2022-10-18T20:16:55.004Z,28.30
2022-10-18T20:19:21.852Z,27.58
2022-10-18T20:21:48.501Z,24.27
2022-10-18T20:24:15.118Z,24.10
2022-10-18T20:26:43.552Z,21.02
2022-10-18T20:29:10.442Z,17.95
2022-10-18T20:31:39.063Z,18.98
2022-10-18T20:34:08.951Z,18.30
2022-10-18T20:36:35.608Z,18.25
2022-10-18T20:39:04.363Z,18.77
2022-10-18T20:41:36.478Z,18.67
2022-10-18T20:44:07.090Z,13.20
2022-10-18T20:46:36.654Z,13.68
2022-10-18T20:49:04.530Z,15.88
2022-10-18T20:51:33.450Z,17.88
2022-10-18T20:56:34.330Z,13.40
2022-10-18T20:59:01.772Z,12.43
2022-10-18T21:01:33.452Z,13.68
2022-10-18T21:04:01.993Z,14.60
2022-10-18T21:06:42.862Z,16.63
2022-10-18T21:09:15.847Z,17.83
2022-10-18T21:11:45.022Z,17.73
2022-10-18T21:14:17.641Z,24.50
2022-10-18T21:16:45.408Z,22.23
2022-10-18T21:19:13.582Z,20.55
2022-10-18T21:21:42.333Z,20.73
2022-10-18T21:24:08.991Z,19.95
2022-10-18T21:26:36.500Z,19.35
2022-10-18T21:29:04.907Z,18.67
2022-10-18T21:31:34.942Z,19.10
2022-10-18T21:36:35.193Z,17.95
2022-10-18T21:39:07.728Z,18.20
2022-10-18T21:41:34.779Z,18.83
2022-10-18T21:44:04.507Z,17.52
2022-10-18T21:46:33.536Z,15.63
2022-10-18T21:49:00.176Z,14.57
2022-10-18T21:51:28.120Z,15.02
2022-10-18T21:53:56.960Z,13.07
2022-10-18T21:56:29.507Z,11.98
2022-10-18T21:58:57.229Z,12.02
2022-10-18T22:01:25.093Z,12.57
2022-10-18T22:03:53.631Z,13.70
2022-10-18T22:06:21.438Z,12.95
2022-10-18T22:08:56.121Z,11.95
2022-10-18T22:11:34.347Z,10.48
2022-10-18T22:14:01.055Z,10.25
2022-10-18T22:16:28.132Z,11.07
2022-10-18T22:18:58.384Z,11.43
2022-10-18T22:21:25.109Z,11.65
2022-10-18T22:23:54.099Z,11.70
2022-10-18T22:26:26.528Z,11.45
2022-10-18T22:28:58.669Z,10.23
2022-10-18T22:31:28.348Z,9.75
2022-10-18T22:33:57.393Z,10.10
2022-10-18T22:36:24.704Z,11.47
2022-10-18T22:38:51.509Z,10.45
2022-10-18T22:41:18.622Z,11.45
2022-10-18T22:43:47.624Z,11.48
2022-10-18T22:46:15.525Z,11.60
2022-10-18T22:48:43.363Z,11.88
2022-10-18T22:51:10.576Z,11.20
2022-10-18T22:53:39.002Z,12.63
2022-10-18T22:56:06.005Z,12.25
2022-10-18T22:58:33.045Z,13.52
2022-10-18T23:01:11.035Z,12.65
2022-10-18T23:03:38.329Z,12.77
2022-10-18T23:06:06.348Z,12.38
2022-10-18T23:08:33.261Z,11.77
2022-10-18T23:11:00.401Z,12.10
2022-10-18T23:13:27.773Z,11.40
2022-10-18T23:16:04.301Z,10.88
2022-10-18T23:18:32.962Z,11.52
2022-10-18T23:21:04.583Z,10.57
2022-10-18T23:23:35.430Z,11.43
2022-10-18T23:26:04.480Z,10.88
2022-10-18T23:28:34.748Z,10.73
2022-10-18T23:31:19.295Z,10.82
2022-10-18T23:33:51.346Z,12.10
2022-10-18T23:36:18.294Z,11.52
2022-10-18T23:38:45.518Z,13.68
2022-10-18T23:41:14.007Z,14.23
2022-10-18T23:43:41.518Z,12.45
2022-10-18T23:46:09.126Z,11.88
2022-10-18T23:48:36.137Z,12.75
2022-10-18T23:51:03.522Z,11.63
2022-10-18T23:53:30.757Z,11.90
2022-10-18T23:56:02.465Z,12.30
2022-10-18T23:58:30.916Z,10.98
